Time;durP1;ratioP1;P1;durP2;ratioP2;P2;SDS_P1;SDS_P2;PMS_P1;PMS_P2;Temp;Humidity;BMP_temperature;BMP_pressure;BME280_temperature;BME280_humidity;BME280_pressure;Samples;Min_cycle;Max_cycle;Signal;HPM_P1;HPM_P2
2022/03/04 00:00:29;;;;;;;24.23;12.95;;;-3.00;89.20;;;;;;6250146;22;20031;-73
2022/03/04 00:02:55;;;;;;;20.95;12.35;;;-3.00;89.30;;;;;;6248411;23;20005;-72
2022/03/04 00:05:21;;;;;;;20.38;11.82;;;-2.90;89.40;;;;;;6248256;23;20027;-73
2022/03/04 00:07:47;;;;;;;23.75;12.25;;;-2.90;88.70;;;;;;6248381;22;20000;-73
2022/03/04 00:10:13;;;;;;;24.80;12.60;;;-2.80;88.50;;;;;;6249578;23;20012;-73
2022/03/04 00:12:40;;;;;;;21.80;13.45;;;-2.80;88.40;;;;;;6250250;23;20008;-73
2022/03/04 00:15:06;;;;;;;21.70;12.70;;;-2.80;88.60;;;;;;6249665;22;20032;-72
2022/03/04 00:17:32;;;;;;;21.08;11.68;;;-2.90;88.70;;;;;;6249818;22;20008;-73
2022/03/04 00:19:59;;;;;;;20.85;12.32;;;-2.90;88.50;;;;;;6249852;22;20000;-72
2022/03/04 00:22:25;;;;;;;18.83;11.70;;;-2.90;88.10;;;;;;6247085;23;20270;-73
2022/03/04 00:24:50;;;;;;;19.58;11.25;;;-2.80;88.20;;;;;;6248513;23;20362;-73
2022/03/04 00:27:16;;;;;;;20.25;12.05;;;-2.90;88.60;;;;;;6249874;22;20082;-73
2022/03/04 00:29:42;;;;;;;25.50;13.45;;;-2.90;88.40;;;;;;6248638;23;20007;-73
2022/03/04 00:32:08;;;;;;;21.63;12.32;;;-2.90;88.30;;;;;;6249292;22;20006;-73
2022/03/04 00:34:34;;;;;;;21.42;12.38;;;-2.90;88.50;;;;;;6248007;23;20023;-73
2022/03/04 00:37:03;;;;;;;29.45;18.80;;;-2.90;88.20;;;;;;6248321;23;20008;-72
2022/03/04 00:39:30;;;;;;;30.88;17.83;;;-2.80;87.40;;;;;;6248012;22;20008;-73
2022/03/04 00:41:56;;;;;;;23.65;13.55;;;-2.70;86.90;;;;;;6250096;22;20087;-73
2022/03/04 00:44:22;;;;;;;23.52;13.32;;;-2.70;85.90;;;;;;6249370;23;19996;-72
2022/03/04 00:46:48;;;;;;;25.98;14.30;;;-2.60;85.40;;;;;;6248433;23;20053;-73
2022/03/04 00:49:14;;;;;;;27.17;14.85;;;-2.50;85.40;;;;;;6249101;22;20016;-72
2022/03/04 00:51:40;;;;;;;24.88;13.93;;;-2.30;85.10;;;;;;6249951;23;20004;-73
2022/03/04 00:54:05;;;;;;;26.73;14.77;;;-2.30;85.70;;;;;;6248286;22;20092;-73
2022/03/04 00:56:31;;;;;;;28.55;15.20;;;-2.30;85.20;;;;;;6248466;23;20691;-73
2022/03/04 00:58:57;;;;;;;24.23;13.85;;;-2.30;85.40;;;;;;6248365;23;20008;-72
2022/03/04 01:01:23;;;;;;;26.33;15.15;;;-2.30;85.30;;;;;;6249716;23;20239;-72
2022/03/04 01:03:49;;;;;;;24.80;14.45;;;-2.50;85.50;;;;;;6248120;23;20278;-72
2022/03/04 01:06:15;;;;;;;26.60;13.45;;;-2.60;86.30;;;;;;6249761;23;20366;-71
2022/03/04 01:08:41;;;;;;;23.38;13.40;;;-2.80;86.90;;;;;;6248078;23;20004;-73
2022/03/04 01:11:07;;;;;;;24.95;14.02;;;-2.90;87.10;;;;;;6249433;22;20008;-72
2022/03/04 01:13:36;;;;;;;22.70;13.75;;;-3.00;87.70;;;;;;6249977;22;20034;-73
2022/03/04 01:16:02;;;;;;;23.77;14.50;;;-2.90;87.60;;;;;;6249684;22;20000;-73
2022/03/04 01:18:28;;;;;;;23.67;13.90;;;-2.80;87.20;;;;;;6249242;22;20008;-73
2022/03/04 01:20:54;;;;;;;22.45;13.43;;;-2.90;87.10;;;;;;6247477;23;20401;-73
2022/03/04 01:23:20;;;;;;;21.73;12.98;;;-2.80;86.20;;;;;;6248157;23;20123;-73
2022/03/04 01:25:47;;;;;;;23.73;13.63;;;-2.60;85.10;;;;;;6249069;23;20028;-73
2022/03/04 01:28:13;;;;;;;25.67;14.10;;;-2.50;84.40;;;;;;6249007;22;20326;-73
2022/03/04 01:30:39;;;;;;;26.30;14.18;;;-2.30;82.80;;;;;;6249306;22;20032;-73
2022/03/04 01:33:05;;;;;;;26.02;14.00;;;-2.00;81.80;;;;;;6249268;22;20003;-73
2022/03/04 01:35:36;;;;;;;28.85;13.70;;;-1.70;79.80;;;;;;6248581;22;20008;-73
2022/03/04 01:38:02;;;;;;;27.42;14.75;;;-1.70;79.20;;;;;;6247761;22;20430;-73
2022/03/04 01:40:28;;;;;;;27.45;14.20;;;-1.50;78.20;;;;;;6248787;22;20000;-73
2022/03/04 01:42:54;;;;;;;27.55;14.50;;;-1.40;77.40;;;;;;6247633;23;20366;-72
2022/03/04 01:45:21;;;;;;;27.38;15.00;;;-1.30;77.20;;;;;;6248847;23;20012;-72
2022/03/04 01:47:48;;;;;;;32.45;15.50;;;-1.00;76.00;;;;;;6249061;22;20004;-71
2022/03/04 01:50:15;;;;;;;26.83;15.10;;;-0.90;75.60;;;;;;6249226;22;20083;-73
2022/03/04 01:52:47;;;;;;;28.00;15.73;;;-0.80;75.00;;;;;;6247447;22;20320;-72
2022/03/04 01:55:16;;;;;;;25.52;14.38;;;-0.70;74.60;;;;;;6247898;23;20274;-71
2022/03/04 01:57:42;;;;;;;28.95;15.20;;;-0.60;74.40;;;;;;6247204;23;20773;-72
2022/03/04 02:00:11;;;;;;;27.08;14.85;;;-0.50;73.60;;;;;;6249134;23;19996;-71
2022/03/04 02:02:42;;;;;;;29.52;15.32;;;-0.50;73.50;;;;;;6247306;23;20000;-72
2022/03/04 02:05:13;;;;;;;27.55;15.63;;;-0.50;73.40;;;;;;6248653;22;20031;-71
2022/03/04 02:07:39;;;;;;;29.90;14.63;;;-0.30;73.10;;;;;;6247340;22;20004;-71
2022/03/04 02:10:05;;;;;;;32.95;14.88;;;-0.20;72.50;;;;;;6247248;23;20032;-72
2022/03/04 02:12:31;;;;;;;30.95;15.90;;;-0.20;72.40;;;;;;6248601;22;20356;-71
2022/03/04 02:14:57;;;;;;;29.17;14.65;;;-0.20;72.10;;;;;;6248170;23;20000;-71
2022/03/04 02:17:23;;;;;;;30.17;15.25;;;-0.20;72.30;;;;;;6248233;22;20000;-71
2022/03/04 02:19:54;;;;;;;29.52;15.00;;;-0.20;72.10;;;;;;6247292;23;20361;-71
2022/03/04 02:22:20;;;;;;;29.27;15.75;;;-0.30;72.20;;;;;;6247555;22;20318;-71
2022/03/04 02:24:46;;;;;;;28.60;16.70;;;-0.30;72.30;;;;;;6248597;22;20000;-71
2022/03/04 02:27:15;;;;;;;28.50;15.23;;;-0.20;72.20;;;;;;6248998;22;19996;-71
2022/03/04 02:29:43;;;;;;;28.13;15.07;;;-0.10;71.60;;;;;;6247537;23;20265;-72
2022/03/04 02:32:09;;;;;;;28.77;14.95;;;0.00;71.50;;;;;;6248610;23;20004;-72
2022/03/04 02:34:35;;;;;;;29.75;15.10;;;-0.20;71.80;;;;;;6248594;22;20008;-71
2022/03/04 02:37:03;;;;;;;29.13;15.60;;;-0.20;71.90;;;;;;6247042;23;20034;-71
2022/03/04 02:39:28;;;;;;;29.20;15.70;;;-0.20;72.10;;;;;;6246729;22;20082;-71
2022/03/04 02:41:54;;;;;;;27.10;15.18;;;-0.20;71.90;;;;;;6248799;22;20000;-71
2022/03/04 02:44:20;;;;;;;30.55;16.35;;;-0.20;71.90;;;;;;6248489;22;20023;-71
2022/03/04 02:46:48;;;;;;;29.40;15.70;;;-0.20;71.80;;;;;;6247975;23;20024;-71
2022/03/04 02:49:14;;;;;;;30.48;15.85;;;-0.10;71.90;;;;;;6248243;22;20287;-72
2022/03/04 02:51:40;;;;;;;32.67;16.52;;;0.00;71.60;;;;;;6248920;22;20004;-71
2022/03/04 02:54:06;;;;;;;29.90;15.75;;;0.00;71.40;;;;;;6247352;22;20012;-72
2022/03/04 02:56:32;;;;;;;30.75;17.00;;;-0.10;71.40;;;;;;6248678;22;20012;-72
2022/03/04 02:58:58;;;;;;;30.00;16.30;;;0.00;71.50;;;;;;6248313;22;20004;-71
2022/03/04 03:01:27;;;;;;;32.47;16.85;;;0.00;71.50;;;;;;6248609;23;19997;-71
2022/03/04 03:03:53;;;;;;;31.30;15.75;;;0.00;71.70;;;;;;6248850;22;20075;-71
2022/03/04 03:06:20;;;;;;;30.15;17.13;;;-0.10;71.90;;;;;;6248750;22;20004;-74
2022/03/04 03:08:46;;;;;;;33.38;17.20;;;-0.20;71.90;;;;;;6247089;22;20054;-71
2022/03/04 03:11:12;;;;;;;31.77;16.50;;;-0.20;72.20;;;;;;6249064;23;20028;-71
2022/03/04 03:13:38;;;;;;;33.05;17.40;;;-0.20;72.30;;;;;;6248756;22;20093;-71
2022/03/04 03:16:04;;;;;;;30.65;16.63;;;-0.20;72.60;;;;;;6244138;22;20370;-72
2022/03/04 03:18:30;;;;;;;34.85;17.90;;;-0.30;73.00;;;;;;6248081;22;20076;-71
2022/03/04 03:20:56;;;;;;;32.70;16.67;;;-0.40;73.10;;;;;;6249305;22;20016;-70
2022/03/04 03:23:22;;;;;;;33.10;17.30;;;-0.30;73.10;;;;;;6249018;23;20422;-71
2022/03/04 03:25:48;;;;;;;33.95;16.92;;;-0.30;73.20;;;;;;6250263;22;20068;-71
2022/03/04 03:28:14;;;;;;;29.70;17.17;;;-0.30;73.10;;;;;;6249776;22;20030;-71
2022/03/04 03:30:40;;;;;;;29.60;16.23;;;-0.40;73.10;;;;;;6250166;22;20010;-71
2022/03/04 03:33:05;;;;;;;34.08;17.77;;;-0.50;73.30;;;;;;6249888;22;20423;-71
2022/03/04 03:35:31;;;;;;;30.00;17.50;;;-0.40;73.40;;;;;;6249894;23;20011;-71
2022/03/04 03:37:57;;;;;;;34.80;17.20;;;-0.40;73.40;;;;;;6248345;23;20004;-71
2022/03/04 03:40:23;;;;;;;37.80;18.63;;;-0.50;73.40;;;;;;6249782;23;20003;-70
2022/03/04 03:42:49;;;;;;;33.83;17.30;;;-0.40;73.10;;;;;;6249761;23;20365;-70
2022/03/04 03:45:15;;;;;;;31.85;17.25;;;-0.60;73.50;;;;;;6250030;22;20008;-70
2022/03/04 03:47:41;;;;;;;37.00;20.05;;;-0.80;74.30;;;;;;6250192;22;20062;-71
2022/03/04 03:50:11;;;;;;;35.90;18.55;;;-1.10;75.00;;;;;;6249000;22;20025;-72
2022/03/04 03:52:37;;;;;;;34.47;19.48;;;-1.50;76.20;;;;;;6248580;22;20005;-71
2022/03/04 03:55:05;;;;;;;33.85;17.15;;;-1.70;77.00;;;;;;6248138;23;20008;-72
2022/03/04 03:57:31;;;;;;;32.30;16.25;;;-1.80;77.80;;;;;;6249460;22;20011;-71
2022/03/04 03:59:57;;;;;;;32.30;17.13;;;-1.90;78.00;;;;;;6249790;23;19992;-72
2022/03/04 04:02:23;;;;;;;34.25;16.85;;;-1.80;78.30;;;;;;6249499;22;20000;-71
2022/03/04 04:04:48;;;;;;;36.13;17.52;;;-2.00;78.80;;;;;;6249362;23;20006;-71
2022/03/04 04:07:14;;;;;;;37.47;18.63;;;-2.10;79.40;;;;;;6249271;23;20004;-71
2022/03/04 04:09:40;;;;;;;42.60;18.58;;;-2.20;80.00;;;;;;6248768;22;20000;-72
2022/03/04 04:12:07;;;;;;;35.45;18.58;;;-2.30;80.30;;;;;;6249124;22;20103;-71
2022/03/04 04:14:34;;;;;;;31.50;17.55;;;-2.50;80.80;;;;;;6249725;23;20426;-72
2022/03/04 04:16:59;;;;;;;35.85;19.35;;;-2.70;81.70;;;;;;6249386;22;19996;-71
2022/03/04 04:19:25;;;;;;;32.58;18.58;;;-2.90;82.10;;;;;;6249403;23;20000;-71
2022/03/04 04:21:52;;;;;;;34.80;18.45;;;-3.10;82.80;;;;;;6247942;23;20008;-71
2022/03/04 04:24:21;;;;;;;39.17;21.20;;;-3.20;83.60;;;;;;6247336;22;20071;-72
2022/03/04 04:26:46;;;;;;;68.47;32.80;;;-3.30;84.10;;;;;;6249280;22;20022;-72
2022/03/04 04:29:12;;;;;;;42.25;21.88;;;-3.40;84.70;;;;;;6248378;23;20027;-72
2022/03/04 04:31:40;;;;;;;58.70;29.55;;;-3.50;85.20;;;;;;6249402;22;20384;-72
2022/03/04 04:34:06;;;;;;;43.95;22.77;;;-3.60;85.40;;;;;;6247427;23;20012;-71
2022/03/04 04:36:32;;;;;;;37.08;20.13;;;-3.70;85.80;;;;;;6249403;22;20028;-71
2022/03/04 04:38:58;;;;;;;39.15;19.63;;;-3.60;86.10;;;;;;6247572;23;20010;-71
2022/03/04 04:41:24;;;;;;;34.60;18.92;;;-3.70;86.50;;;;;;6247720;23;20239;-70
2022/03/04 04:43:49;;;;;;;34.08;18.95;;;-3.70;86.40;;;;;;6249656;22;20007;-70
2022/03/04 04:46:15;;;;;;;34.85;19.45;;;-3.60;86.60;;;;;;6249066;22;20266;-72
2022/03/04 04:48:41;;;;;;;40.58;20.52;;;-3.50;86.40;;;;;;6249096;22;20689;-70
2022/03/04 04:51:07;;;;;;;33.72;17.65;;;-3.50;86.60;;;;;;6248682;23;20012;-73
2022/03/04 04:53:34;;;;;;;39.80;22.35;;;-3.40;86.30;;;;;;6247665;23;20407;-72
2022/03/04 04:56:00;;;;;;;37.45;20.13;;;-3.40;86.20;;;;;;6247910;23;20000;-72
2022/03/04 04:58:28;;;;;;;39.63;22.08;;;-3.50;86.40;;;;;;6249161;22;20088;-72
2022/03/04 05:00:54;;;;;;;40.78;20.90;;;-3.60;86.60;;;;;;6249213;22;20015;-72
2022/03/04 05:03:25;;;;;;;40.95;21.83;;;-3.70;87.10;;;;;;6247876;23;20328;-71
2022/03/04 05:05:52;;;;;;;43.03;22.65;;;-3.60;87.40;;;;;;6248861;22;20054;-72
2022/03/04 05:08:18;;;;;;;41.03;23.00;;;-3.70;87.40;;;;;;6246520;22;20008;-72
2022/03/04 05:10:45;;;;;;;43.42;24.02;;;-3.80;87.80;;;;;;6248802;22;20008;-71
2022/03/04 05:13:11;;;;;;;42.78;23.58;;;-3.80;88.20;;;;;;6249014;22;20008;-72
2022/03/04 05:15:37;;;;;;;41.70;22.95;;;-3.80;88.40;;;;;;6248854;22;20262;-72
2022/03/04 05:18:03;;;;;;;44.85;22.20;;;-3.90;88.40;;;;;;6248765;22;20007;-71
2022/03/04 05:20:28;;;;;;;42.45;21.40;;;-4.00;88.70;;;;;;6248489;23;20079;-71
2022/03/04 05:22:54;;;;;;;38.45;20.50;;;-4.00;88.80;;;;;;6246030;23;20015;-72
2022/03/04 05:25:20;;;;;;;38.83;21.08;;;-4.00;88.70;;;;;;6247464;23;20015;-72
2022/03/04 05:27:46;;;;;;;39.15;20.83;;;-3.90;88.50;;;;;;6248705;22;20126;-72
2022/03/04 05:30:13;;;;;;;44.78;22.55;;;-3.80;88.30;;;;;;6249262;22;20015;-72
2022/03/04 05:32:38;;;;;;;45.10;23.63;;;-3.80;87.90;;;;;;6247446;23;20023;-71
2022/03/04 05:35:05;;;;;;;38.95;20.77;;;-3.80;87.80;;;;;;6247295;23;20274;-72
2022/03/04 05:37:31;;;;;;;46.45;23.20;;;-3.70;88.00;;;;;;6247557;22;20005;-71
2022/03/04 05:39:57;;;;;;;53.08;28.85;;;-3.60;87.70;;;;;;6249178;22;20353;-71
2022/03/04 05:42:23;;;;;;;50.47;25.63;;;-3.70;87.70;;;;;;6248594;22;20071;-72
2022/03/04 05:44:48;;;;;;;52.63;26.67;;;-3.80;88.10;;;;;;6248574;23;20039;-72
2022/03/04 05:47:14;;;;;;;46.55;27.02;;;-3.90;88.40;;;;;;6248403;23;20004;-72
2022/03/04 05:49:40;;;;;;;49.92;25.52;;;-4.00;88.70;;;;;;6248350;23;20022;-72
2022/03/04 05:52:06;;;;;;;42.85;22.10;;;-4.10;89.00;;;;;;6248830;22;20001;-72
2022/03/04 05:54:32;;;;;;;41.65;22.17;;;-4.20;89.30;;;;;;6245758;23;20004;-71
2022/03/04 05:56:58;;;;;;;44.05;22.23;;;-4.20;89.60;;;;;;6247245;23;19996;-71
2022/03/04 05:59:24;;;;;;;45.50;23.05;;;-4.20;89.70;;;;;;6247939;23;20008;-72
2022/03/04 06:01:50;;;;;;;46.10;24.73;;;-4.10;90.20;;;;;;6247931;22;20012;-72
2022/03/04 06:04:17;;;;;;;44.63;24.45;;;-3.90;89.90;;;;;;6248523;22;20008;-72
2022/03/04 06:06:42;;;;;;;47.25;24.30;;;-3.80;89.30;;;;;;6248530;22;20000;-72
2022/03/04 06:09:08;;;;;;;54.85;28.10;;;-4.00;89.60;;;;;;6246973;22;20511;-72
2022/03/04 06:11:37;;;;;;;44.90;23.33;;;-4.10;89.90;;;;;;6248506;23;20054;-71
2022/03/04 06:14:03;;;;;;;40.88;22.15;;;-4.20;90.70;;;;;;6289015;22;20034;-71
2022/03/04 06:16:29;;;;;;;40.28;21.48;;;-4.40;91.40;;;;;;6310225;22;20003;-71
2022/03/04 06:18:54;;;;;;;39.63;19.85;;;-4.40;92.20;;;;;;6282958;22;20003;-71
2022/03/04 06:21:20;;;;;;;85.40;36.92;;;-4.50;92.70;;;;;;6310213;22;20057;-71
2022/03/04 06:23:46;;;;;;;228.88;88.45;;;-4.50;92.80;;;;;;6307936;22;20264;-71
2022/03/04 06:26:12;;;;;;;57.55;26.20;;;-4.50;92.80;;;;;;6309770;22;19995;-71
2022/03/04 06:28:38;;;;;;;45.08;21.23;;;-4.40;92.40;;;;;;6308654;22;20007;-71
2022/03/04 06:31:03;;;;;;;45.03;22.38;;;-4.30;92.30;;;;;;6310019;22;20360;-71
2022/03/04 06:33:30;;;;;;;40.70;22.65;;;-4.20;92.00;;;;;;6309809;22;20010;-72
2022/03/04 06:35:56;;;;;;;40.60;20.73;;;-4.10;92.10;;;;;;6282732;22;20490;-71
2022/03/04 06:38:22;;;;;;;34.65;18.75;;;-4.00;91.90;;;;;;6308115;22;20310;-72
2022/03/04 06:40:49;;;;;;;41.50;20.05;;;-3.90;91.60;;;;;;6309869;22;20006;-70
2022/03/04 06:43:15;;;;;;;37.70;18.92;;;-3.90;91.50;;;;;;6309312;22;19995;-70
2022/03/04 06:45:42;;;;;;;36.05;19.33;;;-3.80;91.50;;;;;;6282257;22;20149;-72
2022/03/04 06:48:09;;;;;;;37.58;20.27;;;-3.60;91.20;;;;;;6308915;22;20431;-71
2022/03/04 06:50:35;;;;;;;34.67;19.02;;;-3.50;91.20;;;;;;6307829;22;20314;-71
2022/03/04 06:53:01;;;;;;;38.17;20.73;;;-3.40;90.80;;;;;;6307813;22;20026;-70
2022/03/04 06:55:27;;;;;;;36.72;18.52;;;-3.30;90.60;;;;;;6311427;22;20018;-71
2022/03/04 06:57:54;;;;;;;39.95;19.15;;;-3.20;89.90;;;;;;6311634;22;20346;-71
2022/03/04 07:00:20;;;;;;;36.75;19.73;;;-3.10;89.00;;;;;;6284587;22;20276;-71
2022/03/04 07:02:47;;;;;;;42.38;22.67;;;-3.00;88.20;;;;;;6310922;22;20298;-72
2022/03/04 07:05:13;;;;;;;42.70;20.50;;;-2.90;88.10;;;;;;6311816;22;20416;-71
2022/03/04 07:07:39;;;;;;;54.83;27.25;;;-2.80;88.00;;;;;;6310818;22;20078;-72
2022/03/04 07:10:05;;;;;;;51.97;26.45;;;-2.70;87.70;;;;;;6312783;22;20303;-72
2022/03/04 07:12:31;;;;;;;54.80;28.73;;;-2.60;87.10;;;;;;6312321;22;20475;-72
2022/03/04 07:14:57;;;;;;;39.45;21.25;;;-2.50;86.60;;;;;;6312521;22;20041;-71
2022/03/04 07:17:23;;;;;;;43.72;23.00;;;-2.40;85.80;;;;;;6312389;22;20074;-70
2022/03/04 07:19:49;;;;;;;45.58;24.42;;;-2.20;85.30;;;;;;6310949;22;20045;-70
2022/03/04 07:22:15;;;;;;;40.20;20.70;;;-2.10;84.70;;;;;;6310058;22;19996;-70
2022/03/04 07:24:41;;;;;;;43.05;22.65;;;-2.00;84.70;;;;;;6312003;22;20004;-71
2022/03/04 07:27:07;;;;;;;36.20;20.38;;;-1.90;84.70;;;;;;6312320;22;20003;-72
2022/03/04 07:29:32;;;;;;;34.20;19.20;;;-1.70;86.00;;;;;;6311469;22;19999;-71
2022/03/04 07:31:58;;;;;;;39.90;21.02;;;-1.70;86.80;;;;;;6311153;22;20043;-71
2022/03/04 07:34:24;;;;;;;35.67;19.98;;;-1.60;87.00;;;;;;6311073;22;19999;-71
2022/03/04 07:36:52;;;;;;;38.47;20.13;;;-1.40;86.30;;;;;;6285254;22;20411;-71
2022/03/04 07:39:18;;;;;;;36.75;21.13;;;-1.30;86.20;;;;;;6310709;22;20003;-70
2022/03/04 07:41:44;;;;;;;35.08;19.55;;;-1.20;86.50;;;;;;6312783;22;19992;-71
2022/03/04 07:44:12;;;;;;;32.97;17.85;;;-1.10;86.00;;;;;;6311865;22;20003;-71
2022/03/04 07:46:38;;;;;;;35.88;19.58;;;-0.90;84.90;;;;;;6285150;22;20006;-71
2022/03/04 07:49:04;;;;;;;36.60;17.13;;;-0.80;82.90;;;;;;6284998;22;20007;-71
2022/03/04 07:51:29;;;;;;;38.03;20.30;;;-0.60;83.10;;;;;;6312592;22;20384;-70
2022/03/04 07:53:55;;;;;;;37.92;21.38;;;-0.50;83.20;;;;;;6283490;22;20003;-70
2022/03/04 07:56:21;;;;;;;43.53;22.67;;;-0.40;82.40;;;;;;6311145;22;20102;-70
2022/03/04 07:58:47;;;;;;;39.22;20.42;;;-0.20;79.60;;;;;;6285186;22;20311;-70
2022/03/04 08:01:12;;;;;;;36.10;19.52;;;0.00;78.00;;;;;;6311743;22;20349;-69
2022/03/04 08:03:38;;;;;;;36.63;19.58;;;0.20;76.00;;;;;;6285152;22;20010;-70
2022/03/04 08:06:04;;;;;;;43.00;21.65;;;0.40;74.70;;;;;;6311796;22;20352;-71
2022/03/04 08:08:30;;;;;;;36.85;20.42;;;0.60;74.00;;;;;;6310800;22;20004;-69
2022/03/04 08:10:55;;;;;;;33.63;17.75;;;0.70;72.80;;;;;;6312244;22;20003;-70
2022/03/04 08:13:21;;;;;;;38.03;19.77;;;0.80;72.30;;;;;;6279317;22;20065;-71
2022/03/04 08:15:48;;;;;;;37.28;19.20;;;0.80;71.70;;;;;;6280616;22;20053;-69
2022/03/04 08:18:14;;;;;;;38.80;21.08;;;1.00;72.10;;;;;;6281117;22;20007;-69
2022/03/04 08:20:40;;;;;;;38.72;20.70;;;1.20;71.50;;;;;;6280508;22;20000;-71
2022/03/04 08:23:11;;;;;;;34.78;19.85;;;1.40;71.70;;;;;;6279819;22;20006;-69
2022/03/04 08:25:39;;;;;;;34.60;19.98;;;2.00;70.70;;;;;;6281176;22;20000;-70
2022/03/04 08:28:05;;;;;;;36.75;20.85;;;3.10;69.40;;;;;;6280547;22;20049;-71
2022/03/04 08:30:31;;;;;;;33.70;19.67;;;4.60;66.20;;;;;;6280821;22;20300;-71
2022/03/04 08:32:56;;;;;;;29.77;18.48;;;5.60;63.10;;;;;;6279897;22;20054;-71
2022/03/04 08:35:22;;;;;;;33.80;17.25;;;6.70;61.00;;;;;;6279369;22;20011;-71
2022/03/04 08:37:48;;;;;;;31.65;18.85;;;7.80;58.50;;;;;;6279390;22;20086;-71
2022/03/04 08:40:14;;;;;;;30.90;18.55;;;8.00;55.50;;;;;;6280594;22;19995;-71
2022/03/04 08:42:41;;;;;;;30.90;18.85;;;8.10;55.80;;;;;;6280795;22;20000;-69
2022/03/04 08:45:08;;;;;;;30.65;19.67;;;8.20;55.50;;;;;;6280560;22;20003;-70
2022/03/04 08:47:33;;;;;;;32.65;19.02;;;7.90;55.60;;;;;;6280469;22;20046;-70
2022/03/04 08:49:59;;;;;;;29.45;19.40;;;7.60;57.00;;;;;;6279283;22;20000;-69
2022/03/04 08:52:25;;;;;;;31.80;19.10;;;8.00;57.70;;;;;;6279351;22;20049;-71
2022/03/04 08:55:04;;;;;;;33.13;19.70;;;7.90;57.60;;;;;;6279961;22;20003;-68
2022/03/04 08:57:31;;;;;;;29.20;18.83;;;7.60;58.20;;;;;;6279860;22;20349;-69
2022/03/04 08:59:57;;;;;;;30.17;19.15;;;8.20;58.70;;;;;;6279278;22;20018;-69
2022/03/04 09:02:23;;;;;;;31.58;19.38;;;8.60;57.30;;;;;;6280650;22;20003;-69
2022/03/04 09:04:48;;;;;;;33.40;18.95;;;9.00;56.80;;;;;;6279487;22;20324;-69
2022/03/04 09:07:14;;;;;;;31.10;18.80;;;9.30;56.90;;;;;;6278801;22;20000;-70
2022/03/04 09:09:40;;;;;;;28.45;18.48;;;8.90;56.80;;;;;;6279086;22;20380;-70
2022/03/04 09:12:07;;;;;;;31.65;19.67;;;8.50;58.50;;;;;;6279909;22;20311;-71
2022/03/04 09:14:32;;;;;;;28.10;19.17;;;8.80;57.70;;;;;;6278961;22;20605;-71
2022/03/04 09:16:58;;;;;;;34.65;19.38;;;8.40;58.30;;;;;;6280194;22;20006;-69
2022/03/04 09:19:24;;;;;;;30.08;18.13;;;8.30;58.60;;;;;;6280468;22;20000;-70
2022/03/04 09:21:57;;;;;;;28.05;18.63;;;8.30;58.20;;;;;;6280374;22;20070;-69
2022/03/04 09:24:24;;;;;;;29.95;18.50;;;8.60;58.70;;;;;;6276427;22;20008;-70
2022/03/04 09:26:50;;;;;;;38.10;20.90;;;9.00;57.60;;;;;;6280398;22;20376;-71
2022/03/04 09:29:16;;;;;;;32.20;20.70;;;8.80;58.00;;;;;;6280550;22;20289;-71
2022/03/04 09:31:41;;;;;;;31.23;19.67;;;8.70;59.00;;;;;;6280528;22;20008;-70
2022/03/04 09:34:07;;;;;;;44.85;27.40;;;9.00;58.40;;;;;;6278508;22;20018;-70
2022/03/04 09:36:33;;;;;;;36.53;22.98;;;9.20;58.70;;;;;;6280639;22;20261;-71
2022/03/04 09:38:58;;;;;;;33.20;21.08;;;8.90;58.50;;;;;;6279171;22;20006;-72
2022/03/04 09:41:25;;;;;;;30.13;19.60;;;9.00;58.90;;;;;;6278436;22;20337;-71
2022/03/04 09:43:53;;;;;;;29.98;19.33;;;9.70;58.20;;;;;;6278990;22;20304;-72
2022/03/04 09:46:23;;;;;;;33.75;20.83;;;10.80;57.10;;;;;;6279458;22;20242;-71
2022/03/04 09:48:53;;;;;;;30.48;20.08;;;11.00;55.00;;;;;;6278793;22;20000;-71
2022/03/04 09:51:20;;;;;;;36.05;21.27;;;10.10;56.40;;;;;;6278441;22;20033;-71
2022/03/04 09:53:45;;;;;;;32.38;19.92;;;9.50;57.70;;;;;;6277296;22;20004;-71
2022/03/04 09:56:12;;;;;;;33.65;19.40;;;9.90;58.20;;;;;;6278862;22;20019;-71
2022/03/04 09:58:38;;;;;;;31.42;18.92;;;10.70;56.70;;;;;;6279902;22;20260;-70
2022/03/04 10:01:12;;;;;;;29.85;19.55;;;11.70;54.10;;;;;;6279381;22;20006;-71
2022/03/04 10:03:49;;;;;;;27.02;19.17;;;12.20;52.30;;;;;;6278795;22;20034;-72
2022/03/04 10:06:16;;;;;;;28.75;19.80;;;12.00;53.40;;;;;;6279993;22;20000;-71
2022/03/04 10:08:45;;;;;;;27.90;19.17;;;11.40;54.20;;;;;;6278513;22;20377;-71
2022/03/04 10:11:22;;;;;;;33.42;20.02;;;10.90;55.30;;;;;;6278484;22;20012;-71
2022/03/04 10:13:51;;;;;;;28.48;18.92;;;11.10;55.80;;;;;;6296805;22;20070;-71
2022/03/04 10:16:27;;;;;;;28.73;19.45;;;11.00;55.70;;;;;;6283934;22;20388;-71
2022/03/04 10:19:16;;;;;;;34.60;20.88;;;10.60;55.20;;;;;;6310320;22;20517;-69
2022/03/04 10:21:58;;;;;;;31.10;19.50;;;10.70;55.40;;;;;;6311127;22;20238;-71
2022/03/04 10:24:30;;;;;;;32.50;21.27;;;10.30;56.00;;;;;;6282162;22;19999;-71
2022/03/04 10:27:07;;;;;;;34.22;21.90;;;9.70;56.70;;;;;;6282959;22;20007;-70
2022/03/04 10:29:39;;;;;;;33.72;22.70;;;9.30;57.30;;;;;;6310155;22;20003;-70
2022/03/04 10:32:05;;;;;;;33.63;21.40;;;8.60;58.20;;;;;;6310186;22;20070;-71
2022/03/04 10:34:57;;;;;;;32.33;20.48;;;8.90;58.30;;;;;;6310297;22;20272;-72
2022/03/04 10:37:37;;;;;;;33.55;19.95;;;9.30;56.90;;;;;;6268824;22;20372;-71
2022/03/04 10:40:07;;;;;;;31.67;18.75;;;9.70;56.20;;;;;;6283774;22;20003;-71
2022/03/04 10:42:44;;;;;;;34.30;20.88;;;10.20;54.90;;;;;;6282211;22;20011;-70
2022/03/04 10:45:18;;;;;;;33.70;21.23;;;9.90;55.00;;;;;;6308852;22;20261;-70
2022/03/04 10:47:53;;;;;;;32.33;20.37;;;10.00;54.80;;;;;;6308499;22;19999;-72
2022/03/04 10:50:42;;;;;;;31.85;20.00;;;9.70;54.60;;;;;;6309001;22;20359;-72
2022/03/04 10:53:16;;;;;;;32.97;19.77;;;9.60;56.00;;;;;;6222293;22;20023;-72
2022/03/04 10:55:45;;;;;;;29.90;19.27;;;10.10;55.60;;;;;;6309069;22;20003;-72
2022/03/04 10:58:27;;;;;;;32.40;19.90;;;10.60;54.70;;;;;;6309218;22;20034;-71
2022/03/04 11:00:58;;;;;;;35.72;20.58;;;10.80;53.80;;;;;;6308400;22;19999;-72
2022/03/04 11:03:27;;;;;;;30.35;19.73;;;10.50;54.60;;;;;;6308823;22;20006;-72
2022/03/04 11:05:56;;;;;;;35.92;19.80;;;11.20;53.40;;;;;;6309394;22;20074;-72
2022/03/04 11:08:23;;;;;;;30.83;18.80;;;11.30;52.00;;;;;;6307526;22;20369;-72
2022/03/04 11:10:50;;;;;;;30.85;18.50;;;11.20;52.60;;;;;;6308288;22;20000;-72
2022/03/04 11:13:16;;;;;;;30.92;17.95;;;11.20;52.90;;;;;;6308183;22;20015;-72
2022/03/04 11:15:44;;;;;;;28.17;15.80;;;11.10;50.20;;;;;;6280250;22;20015;-71
2022/03/04 11:18:16;;;;;;;20.48;12.23;;;10.70;49.30;;;;;;6308531;22;20315;-72
2022/03/04 11:20:49;;;;;;;27.05;16.42;;;10.80;47.10;;;;;;6309344;22;20005;-72
2022/03/04 11:23:21;;;;;;;21.77;14.02;;;11.40;47.00;;;;;;6307468;22;20023;-72
2022/03/04 11:26:01;;;;;;;19.77;11.60;;;11.30;47.80;;;;;;6281453;22;20035;-72
2022/03/04 11:28:42;;;;;;;21.40;12.65;;;11.90;44.30;;;;;;6308060;22;20007;-71
2022/03/04 11:31:11;;;;;;;21.42;13.07;;;11.70;46.30;;;;;;6308714;22;20316;-72
2022/03/04 11:33:51;;;;;;;18.70;11.73;;;12.00;46.00;;;;;;6280321;22;20042;-70
2022/03/04 11:36:29;;;;;;;19.17;11.43;;;12.40;45.00;;;;;;6309172;22;20008;-71
2022/03/04 11:39:14;;;;;;;21.48;12.27;;;12.80;43.90;;;;;;6279634;22;20412;-72
2022/03/04 11:41:46;;;;;;;19.85;12.20;;;12.70;43.40;;;;;;6281828;22;20090;-71
2022/03/04 11:44:22;;;;;;;19.75;11.77;;;12.40;43.20;;;;;;6311135;22;19995;-71
2022/03/04 11:47:05;;;;;;;21.67;13.05;;;12.60;44.40;;;;;;6310308;22;19999;-71
2022/03/04 11:49:49;;;;;;;33.08;16.83;;;12.30;44.50;;;;;;6309648;22;19999;-71
2022/03/04 11:52:27;;;;;;;;;;;11.60;48.60;;;;;;6309661;22;20007;-71
2022/03/04 11:54:58;;;;;;;27.75;19.10;;;12.00;49.30;;;;;;6310852;22;19948;-70
2022/03/04 11:57:30;;;;;;;29.40;17.90;;;11.70;49.20;;;;;;6283573;22;20356;-70
2022/03/04 11:59:59;;;;;;;29.48;18.55;;;11.50;50.00;;;;;;6310775;22;20003;-70
2022/03/04 12:02:38;;;;;;;30.48;17.80;;;11.50;48.80;;;;;;6310679;22;20026;-72
2022/03/04 12:05:13;;;;;;;27.35;17.60;;;11.40;49.20;;;;;;6310496;22;20061;-71
2022/03/04 12:07:46;;;;;;;28.92;18.05;;;11.50;49.20;;;;;;6281471;22;20410;-72
2022/03/04 12:10:20;;;;;;;25.55;16.70;;;12.10;49.40;;;;;;6310976;22;20004;-72
2022/03/04 12:13:06;;;;;;;27.23;16.80;;;12.50;47.40;;;;;;6310210;22;20089;-73
2022/03/04 12:15:38;;;;;;;27.98;16.38;;;11.90;47.50;;;;;;6283555;22;20008;-72
2022/03/04 12:18:27;;;;;;;27.55;15.23;;;12.20;48.10;;;;;;6309783;22;20027;-73
2022/03/04 12:20:56;;;;;;;28.23;18.20;;;12.20;47.40;;;;;;6283185;22;19999;-71
2022/03/04 12:23:45;;;;;;;31.67;17.88;;;12.00;47.40;;;;;;6308961;22;20358;-73
2022/03/04 12:26:23;;;;;;;30.15;18.52;;;11.30;48.10;;;;;;6283487;22;20003;-72
2022/03/04 12:29:02;;;;;;;30.73;18.00;;;10.70;50.10;;;;;;6310261;22;20254;-73
2022/03/04 12:31:33;;;;;;;29.80;18.02;;;10.50;51.20;;;;;;6310871;22;20007;-72